sensor_id;sensor_type;location;lat;lon;timestamp;temperature;humidity
55016;DHT22;40919;43.236;21.590;2022-12-07T00:17:01;256.20;2252.80
55016;DHT22;40919;43.236;21.590;2022-12-07T02:10:46;256.00;2252.80
55016;DHT22;40919;43.236;21.590;2022-12-07T02:43:52;256.10;2252.80
55016;DHT22;40919;43.236;21.590;2022-12-07T02:46:33;231.20;2252.80
55016;DHT22;40919;43.236;21.590;2022-12-07T02:49:00;231.20;2252.80
55016;DHT22;40919;43.236;21.590;2022-12-07T02:51:30;231.10;2252.80
55016;DHT22;40919;43.236;21.590;2022-12-07T02:53:56;231.10;2252.80
55016;DHT22;40919;43.236;21.590;2022-12-07T03:10:24;231.10;2252.80
55016;DHT22;40919;43.236;21.590;2022-12-07T03:13:04;231.20;2252.80
55016;DHT22;40919;43.236;21.590;2022-12-07T03:18:25;231.20;2252.80
55016;DHT22;40919;43.236;21.590;2022-12-07T03:20:54;231.20;2252.80
55016;DHT22;40919;43.236;21.590;2022-12-07T03:23:23;231.10;2252.80
55016;DHT22;40919;43.236;21.590;2022-12-07T03:25:56;231.30;2252.80
55016;DHT22;40919;43.236;21.590;2022-12-07T03:28:26;231.30;2252.80
55016;DHT22;40919;43.236;21.590;2022-12-07T03:31:07;231.30;2252.80
55016;DHT22;40919;43.236;21.590;2022-12-07T03:36:32;231.20;2252.80
55016;DHT22;40919;43.236;21.590;2022-12-07T03:39:13;231.30;2252.80
55016;DHT22;40919;43.236;21.590;2022-12-07T03:41:43;231.20;2252.80
55016;DHT22;40919;43.236;21.590;2022-12-07T03:44:09;231.20;2252.80
55016;DHT22;40919;43.236;21.590;2022-12-07T03:49:31;231.10;2252.80
55016;DHT22;40919;43.236;21.590;2022-12-07T04:04:33;256.00;2252.80
55016;DHT22;40919;43.236;21.590;2022-12-07T04:07:00;231.10;2252.80
55016;DHT22;40919;43.236;21.590;2022-12-07T04:09:26;231.10;2252.80
55016;DHT22;40919;43.236;21.590;2022-12-07T04:11:51;231.10;2252.80
55016;DHT22;40919;43.236;21.590;2022-12-07T04:14:17;231.10;2252.80
55016;DHT22;40919;43.236;21.590;2022-12-07T04:16:48;231.00;2252.80
55016;DHT22;40919;43.236;21.590;2022-12-07T04:19:15;231.00;2252.80
55016;DHT22;40919;43.236;21.590;2022-12-07T04:21:41;231.00;2252.80
55016;DHT22;40919;43.236;21.590;2022-12-07T04:24:07;231.00;2252.80
55016;DHT22;40919;43.236;21.590;2022-12-07T04:26:33;231.10;2252.80
55016;DHT22;40919;43.236;21.590;2022-12-07T04:28:59;231.10;2252.80
55016;DHT22;40919;43.236;21.590;2022-12-07T04:31:25;231.10;2252.80
55016;DHT22;40919;43.236;21.590;2022-12-07T04:33:51;231.10;2252.80
55016;DHT22;40919;43.236;21.590;2022-12-07T04:36:17;231.10;2252.80
55016;DHT22;40919;43.236;21.590;2022-12-07T04:38:42;231.10;2252.80
55016;DHT22;40919;43.236;21.590;2022-12-07T04:41:09;231.00;2252.80
55016;DHT22;40919;43.236;21.590;2022-12-07T04:43:35;231.00;2252.80
55016;DHT22;40919;43.236;21.590;2022-12-07T04:46:02;231.00;2252.80
55016;DHT22;40919;43.236;21.590;2022-12-07T04:48:28;231.10;2252.80
55016;DHT22;40919;43.236;21.590;2022-12-07T04:50:54;231.00;2252.80
55016;DHT22;40919;43.236;21.590;2022-12-07T04:53:20;231.00;2252.80
55016;DHT22;40919;43.236;21.590;2022-12-07T04:55:46;231.00;2252.80
55016;DHT22;40919;43.236;21.590;2022-12-07T04:58:12;231.00;2252.80
55016;DHT22;40919;43.236;21.590;2022-12-07T05:00:39;231.00;2252.80
55016;DHT22;40919;43.236;21.590;2022-12-07T05:03:05;231.00;2252.80
55016;DHT22;40919;43.236;21.590;2022-12-07T05:05:31;231.10;2252.80
55016;DHT22;40919;43.236;21.590;2022-12-07T05:07:57;231.00;2252.80
55016;DHT22;40919;43.236;21.590;2022-12-07T05:10:22;231.00;2252.80
55016;DHT22;40919;43.236;21.590;2022-12-07T05:12:48;231.00;2252.80
55016;DHT22;40919;43.236;21.590;2022-12-07T05:15:15;231.10;2252.80
55016;DHT22;40919;43.236;21.590;2022-12-07T05:17:41;230.90;2252.80
55016;DHT22;40919;43.236;21.590;2022-12-07T05:20:08;231.00;2252.80
55016;DHT22;40919;43.236;21.590;2022-12-07T05:22:34;231.00;2252.80
55016;DHT22;40919;43.236;21.590;2022-12-07T05:25:00;231.00;2252.80
55016;DHT22;40919;43.236;21.590;2022-12-07T05:27:26;231.00;2252.80
55016;DHT22;40919;43.236;21.590;2022-12-07T05:29:52;231.00;2252.80
55016;DHT22;40919;43.236;21.590;2022-12-07T05:32:18;231.00;2252.80
55016;DHT22;40919;43.236;21.590;2022-12-07T05:34:43;231.00;2252.80
55016;DHT22;40919;43.236;21.590;2022-12-07T09:22:31;307.20;2304.00
55016;DHT22;40919;43.236;21.590;2022-12-07T09:24:58;282.40;2278.40
55016;DHT22;40919;43.236;21.590;2022-12-07T09:27:24;282.20;2278.40
55016;DHT22;40919;43.236;21.590;2022-12-07T09:29:50;282.30;2278.40
55016;DHT22;40919;43.236;21.590;2022-12-07T09:32:16;282.30;2278.40
55016;DHT22;40919;43.236;21.590;2022-12-07T09:34:41;282.30;2278.40
55016;DHT22;40919;43.236;21.590;2022-12-07T09:39:34;307.30;2304.00
55016;DHT22;40919;43.236;21.590;2022-12-07T09:42:03;282.50;2278.40
55016;DHT22;40919;43.236;21.590;2022-12-07T09:44:30;307.20;2304.00
55016;DHT22;40919;43.236;21.590;2022-12-07T09:46:56;307.20;2304.00
55016;DHT22;40919;43.236;21.590;2022-12-07T09:49:24;307.30;2304.00
55016;DHT22;40919;43.236;21.590;2022-12-07T09:54:29;307.30;2304.00
55016;DHT22;40919;43.236;21.590;2022-12-07T09:56:56;307.40;2304.00
55016;DHT22;40919;43.236;21.590;2022-12-07T10:01:49;307.80;2304.00
55016;DHT22;40919;43.236;21.590;2022-12-07T10:04:20;307.80;2304.00
55016;DHT22;40919;43.236;21.590;2022-12-07T10:06:48;307.80;2304.00
55016;DHT22;40919;43.236;21.590;2022-12-07T10:09:16;307.90;2304.00
55016;DHT22;40919;43.236;21.590;2022-12-07T10:12:02;307.90;2304.00
55016;DHT22;40919;43.236;21.590;2022-12-07T10:14:30;307.90;2304.00
55016;DHT22;40919;43.236;21.590;2022-12-07T10:16:56;307.90;2304.00
55016;DHT22;40919;43.236;21.590;2022-12-07T10:22:12;308.00;2304.00
55016;DHT22;40919;43.236;21.590;2022-12-07T10:24:40;308.10;2304.00
55016;DHT22;40919;43.236;21.590;2022-12-07T10:27:30;308.10;2304.00
55016;DHT22;40919;43.236;21.590;2022-12-07T10:29:57;332.90;2329.60
55016;DHT22;40919;43.236;21.590;2022-12-07T10:32:33;333.10;2329.60
55016;DHT22;40919;43.236;21.590;2022-12-07T10:35:42;333.20;2329.60
55016;DHT22;40919;43.236;21.590;2022-12-07T10:38:16;333.20;2329.60
55016;DHT22;40919;43.236;21.590;2022-12-07T10:40:42;333.10;2329.60
55016;DHT22;40919;43.236;21.590;2022-12-07T10:51:46;333.70;2329.60
55016;DHT22;40919;43.236;21.590;2022-12-07T10:57:07;358.50;2329.60
55016;DHT22;40919;43.236;21.590;2022-12-07T11:16:27;359.10;2329.60
55016;DHT22;40919;43.236;21.590;2022-12-07T11:19:13;359.20;2329.60
55016;DHT22;40919;43.236;21.590;2022-12-07T11:24:18;359.10;2329.60
55016;DHT22;40919;43.236;21.590;2022-12-07T11:27:00;359.10;2329.60
55016;DHT22;40919;43.236;21.590;2022-12-07T11:30:02;359.00;2329.60
55016;DHT22;40919;43.236;21.590;2022-12-07T11:38:48;358.80;2329.60
55016;DHT22;40919;43.236;21.590;2022-12-07T11:41:22;358.80;2329.60
55016;DHT22;40919;43.236;21.590;2022-12-07T11:46:27;358.70;2329.60
55016;DHT22;40919;43.236;21.590;2022-12-07T11:49:07;358.60;2329.60
55016;DHT22;40919;43.236;21.590;2022-12-07T11:51:36;358.60;2329.60
55016;DHT22;40919;43.236;21.590;2022-12-07T11:54:11;358.60;2329.60
55016;DHT22;40919;43.236;21.590;2022-12-07T11:56:37;358.70;2329.60
55016;DHT22;40919;43.236;21.590;2022-12-07T11:59:30;358.80;2329.60
55016;DHT22;40919;43.236;21.590;2022-12-07T12:02:15;358.80;2329.60
55016;DHT22;40919;43.236;21.590;2022-12-07T12:04:52;359.00;2329.60
55016;DHT22;40919;43.236;21.590;2022-12-07T12:07:25;359.20;2329.60
55016;DHT22;40919;43.236;21.590;2022-12-07T12:09:59;384.30;2329.60
55016;DHT22;40919;43.236;21.590;2022-12-07T12:15:28;384.60;2329.60
55016;DHT22;40919;43.236;21.590;2022-12-07T12:20:29;384.60;2329.60
55016;DHT22;40919;43.236;21.590;2022-12-07T12:23:11;384.60;2329.60
55016;DHT22;40919;43.236;21.590;2022-12-07T12:25:59;384.60;2329.60
55016;DHT22;40919;43.236;21.590;2022-12-07T12:28:40;384.40;2329.60
55016;DHT22;40919;43.236;21.590;2022-12-07T12:34:02;384.20;2329.60
55016;DHT22;40919;43.236;21.590;2022-12-07T12:39:14;384.00;2329.60
55016;DHT22;40919;43.236;21.590;2022-12-07T12:46:56;384.10;2329.60
55016;DHT22;40919;43.236;21.590;2022-12-07T12:51:49;359.30;2329.60
55016;DHT22;40919;43.236;21.590;2022-12-07T12:57:15;384.00;2329.60
55016;DHT22;40919;43.236;21.590;2022-12-07T13:20:57;384.50;2329.60
55016;DHT22;40919;43.236;21.590;2022-12-07T13:26:23;384.10;2329.60
55016;DHT22;40919;43.236;21.590;2022-12-07T13:29:17;384.00;2329.60
55016;DHT22;40919;43.236;21.590;2022-12-07T13:34:41;359.10;2329.60
55016;DHT22;40919;43.236;21.590;2022-12-07T13:37:26;359.00;2329.60
55016;DHT22;40919;43.236;21.590;2022-12-07T13:39:59;359.00;2329.60
55016;DHT22;40919;43.236;21.590;2022-12-07T13:42:29;358.90;2329.60
55016;DHT22;40919;43.236;21.590;2022-12-07T13:44:57;358.90;2329.60
55016;DHT22;40919;43.236;21.590;2022-12-07T13:47:36;358.80;2329.60
55016;DHT22;40919;43.236;21.590;2022-12-07T13:50:32;358.80;2329.60
55016;DHT22;40919;43.236;21.590;2022-12-07T13:53:01;358.90;2329.60
55016;DHT22;40919;43.236;21.590;2022-12-07T13:55:28;358.90;2329.60
55016;DHT22;40919;43.236;21.590;2022-12-07T13:57:55;358.80;2329.60
55016;DHT22;40919;43.236;21.590;2022-12-07T14:00:26;358.70;2329.60
55016;DHT22;40919;43.236;21.590;2022-12-07T14:02:59;358.70;2329.60
55016;DHT22;40919;43.236;21.590;2022-12-07T14:05:30;358.50;2329.60
55016;DHT22;40919;43.236;21.590;2022-12-07T14:08:01;358.50;2329.60
55016;DHT22;40919;43.236;21.590;2022-12-07T14:10:28;358.40;2329.60
55016;DHT22;40919;43.236;21.590;2022-12-07T14:12:54;358.40;2329.60
55016;DHT22;40919;43.236;21.590;2022-12-07T14:15:23;333.70;2329.60
55016;DHT22;40919;43.236;21.590;2022-12-07T14:17:51;333.70;2329.60
55016;DHT22;40919;43.236;21.590;2022-12-07T14:20:34;333.70;2329.60
55016;DHT22;40919;43.236;21.590;2022-12-07T14:23:00;333.70;2329.60
55016;DHT22;40919;43.236;21.590;2022-12-07T14:25:45;333.60;2329.60
55016;DHT22;40919;43.236;21.590;2022-12-07T14:28:29;333.50;2329.60
55016;DHT22;40919;43.236;21.590;2022-12-07T14:30:56;333.50;2329.60
55016;DHT22;40919;43.236;21.590;2022-12-07T14:33:23;333.50;2329.60
55016;DHT22;40919;43.236;21.590;2022-12-07T14:35:49;333.50;2329.60
55016;DHT22;40919;43.236;21.590;2022-12-07T14:38:15;333.40;2329.60
55016;DHT22;40919;43.236;21.590;2022-12-07T14:40:44;333.30;2329.60
55016;DHT22;40919;43.236;21.590;2022-12-07T14:43:12;333.30;2329.60
55016;DHT22;40919;43.236;21.590;2022-12-07T14:45:39;333.30;2329.60
55016;DHT22;40919;43.236;21.590;2022-12-07T14:48:07;333.30;2329.60
55016;DHT22;40919;43.236;21.590;2022-12-07T14:50:37;333.30;2329.60
55016;DHT22;40919;43.236;21.590;2022-12-07T14:53:13;333.30;2329.60
55016;DHT22;40919;43.236;21.590;2022-12-07T14:55:39;333.30;2329.60
55016;DHT22;40919;43.236;21.590;2022-12-07T14:58:05;333.20;2329.60
55016;DHT22;40919;43.236;21.590;2022-12-07T15:00:31;333.30;2329.60
55016;DHT22;40919;43.236;21.590;2022-12-07T15:02:57;333.30;2329.60
55016;DHT22;40919;43.236;21.590;2022-12-07T15:05:23;333.30;2329.60
55016;DHT22;40919;43.236;21.590;2022-12-07T15:07:49;333.30;2329.60
55016;DHT22;40919;43.236;21.590;2022-12-07T15:12:41;333.20;2329.60
55016;DHT22;40919;43.236;21.590;2022-12-07T15:15:07;333.20;2329.60
55016;DHT22;40919;43.236;21.590;2022-12-07T15:17:33;333.00;2329.60
55016;DHT22;40919;43.236;21.590;2022-12-07T15:19:59;333.10;2329.60
55016;DHT22;40919;43.236;21.590;2022-12-07T15:22:25;333.10;2329.60
55016;DHT22;40919;43.236;21.590;2022-12-07T15:24:51;333.10;2329.60
55016;DHT22;40919;43.236;21.590;2022-12-07T15:27:17;333.00;2329.60
55016;DHT22;40919;43.236;21.590;2022-12-07T15:29:42;333.00;2329.60
55016;DHT22;40919;43.236;21.590;2022-12-07T15:32:08;333.00;2329.60
55016;DHT22;40919;43.236;21.590;2022-12-07T15:34:34;333.00;2329.60
55016;DHT22;40919;43.236;21.590;2022-12-07T15:37:00;333.00;2329.60
55016;DHT22;40919;43.236;21.590;2022-12-07T15:39:26;333.00;2329.60
55016;DHT22;40919;43.236;21.590;2022-12-07T15:41:51;333.00;2329.60
55016;DHT22;40919;43.236;21.590;2022-12-07T15:44:17;332.90;2329.60
55016;DHT22;40919;43.236;21.590;2022-12-07T15:47:01;332.90;2329.60
55016;DHT22;40919;43.236;21.590;2022-12-07T15:49:27;332.90;2329.60
55016;DHT22;40919;43.236;21.590;2022-12-07T15:51:53;332.90;2329.60
55016;DHT22;40919;43.236;21.590;2022-12-07T15:54:22;332.80;2329.60
55016;DHT22;40919;43.236;21.590;2022-12-07T15:56:48;332.80;2329.60
55016;DHT22;40919;43.236;21.590;2022-12-07T15:59:14;332.90;2329.60
55016;DHT22;40919;43.236;21.590;2022-12-07T16:01:40;332.80;2329.60
55016;DHT22;40919;43.236;21.590;2022-12-07T16:04:06;332.80;2329.60
55016;DHT22;40919;43.236;21.590;2022-12-07T16:06:32;332.80;2329.60
55016;DHT22;40919;43.236;21.590;2022-12-07T16:08:58;332.80;2329.60
55016;DHT22;40919;43.236;21.590;2022-12-07T17:37:25;282.40;2278.40
55016;DHT22;40919;43.236;21.590;2022-12-07T17:39:52;282.40;2278.40
55016;DHT22;40919;43.236;21.590;2022-12-07T17:52:33;282.50;2278.40
55016;DHT22;40919;43.236;21.590;2022-12-07T17:55:17;282.30;2278.40
55016;DHT22;40919;43.236;21.590;2022-12-07T17:57:43;282.20;2278.40
55016;DHT22;40919;43.236;21.590;2022-12-07T18:00:09;282.20;2278.40
55016;DHT22;40919;43.236;21.590;2022-12-07T18:02:36;282.20;2278.40
55016;DHT22;40919;43.236;21.590;2022-12-07T18:05:02;282.10;2278.40
55016;DHT22;40919;43.236;21.590;2022-12-07T18:07:28;282.10;2278.40
55016;DHT22;40919;43.236;21.590;2022-12-07T18:09:54;282.00;2278.40
55016;DHT22;40919;43.236;21.590;2022-12-07T18:12:20;282.00;2278.40
55016;DHT22;40919;43.236;21.590;2022-12-07T18:14:45;282.00;2278.40
55016;DHT22;40919;43.236;21.590;2022-12-07T18:17:11;282.00;2278.40
55016;DHT22;40919;43.236;21.590;2022-12-07T18:19:37;282.00;2278.40
55016;DHT22;40919;43.236;21.590;2022-12-07T18:22:03;281.80;2278.40
55016;DHT22;40919;43.236;21.590;2022-12-07T18:34:17;282.00;2278.40
55016;DHT22;40919;43.236;21.590;2022-12-07T18:36:45;281.90;2278.40
55016;DHT22;40919;43.236;21.590;2022-12-07T18:39:13;281.90;2278.40
55016;DHT22;40919;43.236;21.590;2022-12-07T18:41:39;281.90;2278.40
55016;DHT22;40919;43.236;21.590;2022-12-07T18:44:05;281.90;2278.40
55016;DHT22;40919;43.236;21.590;2022-12-07T18:46:32;281.90;2278.40
55016;DHT22;40919;43.236;21.590;2022-12-07T18:48:58;281.80;2278.40
55016;DHT22;40919;43.236;21.590;2022-12-07T18:51:25;281.80;2278.40
55016;DHT22;40919;43.236;21.590;2022-12-07T18:56:22;281.80;2278.40
55016;DHT22;40919;43.236;21.590;2022-12-07T18:58:54;281.70;2278.40
55016;DHT22;40919;43.236;21.590;2022-12-07T19:36:12;256.90;2252.80
55016;DHT22;40919;43.236;21.590;2022-12-07T19:38:38;256.70;2252.80
55016;DHT22;40919;43.236;21.590;2022-12-07T19:41:08;256.60;2252.80
55016;DHT22;40919;43.236;21.590;2022-12-07T19:43:55;256.60;2252.80
55016;DHT22;40919;43.236;21.590;2022-12-07T19:46:21;256.70;2252.80
55016;DHT22;40919;43.236;21.590;2022-12-07T19:48:47;256.70;2252.80
55016;DHT22;40919;43.236;21.590;2022-12-07T19:51:12;256.70;2252.80
55016;DHT22;40919;43.236;21.590;2022-12-07T19:53:38;256.70;1920.00
55016;DHT22;40919;43.236;21.590;2022-12-07T19:56:04;256.80;2252.80
55016;DHT22;40919;43.236;21.590;2022-12-07T19:58:30;256.80;2252.80
55016;DHT22;40919;43.236;21.590;2022-12-07T20:01:02;256.90;1945.60
55016;DHT22;40919;43.236;21.590;2022-12-07T20:03:28;256.70;1945.60
55016;DHT22;40919;43.236;21.590;2022-12-07T20:05:53;256.80;2252.80
55016;DHT22;40919;43.236;21.590;2022-12-07T20:08:22;256.70;2252.80
55016;DHT22;40919;43.236;21.590;2022-12-07T20:10:48;256.60;2252.80
55016;DHT22;40919;43.236;21.590;2022-12-07T20:13:16;256.60;2252.80
55016;DHT22;40919;43.236;21.590;2022-12-07T20:15:56;256.60;2252.80
55016;DHT22;40919;43.236;21.590;2022-12-07T20:18:22;256.60;2252.80
55016;DHT22;40919;43.236;21.590;2022-12-07T20:20:56;256.60;2252.80
55016;DHT22;40919;43.236;21.590;2022-12-07T20:23:27;256.70;2252.80
55016;DHT22;40919;43.236;21.590;2022-12-07T20:25:53;256.60;2252.80
55016;DHT22;40919;43.236;21.590;2022-12-07T20:28:19;256.60;2252.80
55016;DHT22;40919;43.236;21.590;2022-12-07T20:30:49;256.60;2252.80
55016;DHT22;40919;43.236;21.590;2022-12-07T20:33:17;256.60;2252.80
55016;DHT22;40919;43.236;21.590;2022-12-07T20:35:43;256.60;2252.80
55016;DHT22;40919;43.236;21.590;2022-12-07T20:38:10;256.50;2252.80
55016;DHT22;40919;43.236;21.590;2022-12-07T20:40:37;256.50;2252.80
55016;DHT22;40919;43.236;21.590;2022-12-07T20:43:03;256.50;2252.80
55016;DHT22;40919;43.236;21.590;2022-12-07T20:45:29;256.00;2252.80
55016;DHT22;40919;43.236;21.590;2022-12-07T20:47:55;256.40;2252.80
55016;DHT22;40919;43.236;21.590;2022-12-07T20:50:21;256.40;2252.80
55016;DHT22;40919;43.236;21.590;2022-12-07T20:52:47;256.20;2252.80
55016;DHT22;40919;43.236;21.590;2022-12-07T20:55:13;256.30;2252.80
55016;DHT22;40919;43.236;21.590;2022-12-07T22:33:36;231.20;2252.80
55016;DHT22;40919;43.236;21.590;2022-12-07T22:36:03;231.10;2252.80
55016;DHT22;40919;43.236;21.590;2022-12-07T22:38:29;230.90;2252.80
55016;DHT22;40919;43.236;21.590;2022-12-07T22:44:09;231.00;2252.80
55016;DHT22;40919;43.236;21.590;2022-12-07T22:46:57;231.00;2252.80
